Time;durP1;ratioP1;P1;durP2;ratioP2;P2;SDS_P1;SDS_P2;PMS_P1;PMS_P2;Temp;Humidity;BMP_temperature;BMP_pressure;BME280_temperature;BME280_humidity;BME280_pressure;Samples;Min_cycle;Max_cycle;Signal;HPM_P1;HPM_P2
2021/07/26 00:01:41;;;;;;;8.03;5.30;;;;;;;18.47;84.48;100243.20;125432;1096;64278;-84
2021/07/26 00:04:17;;;;;;;6.77;5.00;;;;;;;18.38;84.25;100234.67;125356;1096;64393;-83
2021/07/26 00:06:51;;;;;;;8.27;5.53;;;;;;;18.29;83.73;100242.28;125307;1096;64265;-83
2021/07/26 00:09:27;;;;;;;8.57;4.87;;;;;;;18.24;84.39;100233.33;125150;1096;64348;-84
2021/07/26 00:12:06;;;;;;;7.57;5.23;;;;;;;18.20;84.67;100232.17;125278;1095;64307;-84
2021/07/26 00:14:57;;;;;;;9.00;5.70;;;;;;;18.17;84.58;100232.63;124917;1096;64240;-83
2021/07/26 00:17:46;;;;;;;9.40;5.37;;;;;;;18.12;85.15;100241.39;125116;1096;64288;-83
2021/07/26 00:20:39;;;;;;;9.33;5.57;;;;;;;18.07;86.00;100239.42;125183;1096;64291;-83
2021/07/26 00:23:21;;;;;;;8.10;5.70;;;;;;;18.04;86.38;100241.75;125333;1095;64351;-84
2021/07/26 00:26:25;;;;;;;;;;;;;;;;;;;;;
2021/07/26 00:29:31;;;;;;;;;;;;;;;;;;;;;
2021/07/26 00:32:17;;;;;;;9.53;5.67;;;;;;;18.01;86.92;100252.97;125168;1096;64316;-82
2021/07/26 00:35:09;;;;;;;9.93;5.80;;;;;;;17.98;87.11;100250.73;125105;1095;64279;-85
2021/07/26 00:38:41;;;;;;;11.33;6.40;;;;;;;17.92;87.53;100242.59;125196;1095;64297;-84
2021/07/26 00:41:40;;;;;;;;;;;;;;;;;;;;;
2021/07/26 00:44:16;;;;;;;10.40;6.10;;;;;;;17.89;87.82;100248.44;124869;1095;64397;-83
2021/07/26 00:46:58;;;;;;;8.27;5.70;;;;;;;17.93;89.24;100240.71;125203;1095;64172;-83
2021/07/26 00:49:40;;;;;;;8.97;6.03;;;;;;;17.96;88.81;100247.47;125277;1096;64358;-84
2021/07/26 00:52:17;;;;;;;9.13;4.80;;;;;;;17.93;89.43;100241.52;125108;1096;64380;-83
2021/07/26 00:55:06;;;;;;;9.43;5.67;;;;;;;17.91;89.46;100248.17;125202;1095;64205;-83
2021/07/26 00:57:43;;;;;;;11.03;6.60;;;;;;;17.90;89.53;100255.42;125007;1096;64221;-85
2021/07/26 01:00:11;;;;;;;9.47;6.20;;;;;;;17.90;89.86;100250.05;125102;1095;64282;-82
2021/07/26 01:03:19;;;;;;;11.00;6.90;;;;;;;17.88;90.40;100257.52;125190;1095;64298;-84
2021/07/26 01:06:12;;;;;;;8.00;5.83;;;;;;;17.88;90.90;100252.16;125485;1095;64269;-84
2021/07/26 01:08:45;;;;;;;8.13;5.33;;;;;;;17.88;91.26;100268.25;125495;1096;64300;-84
2021/07/26 01:11:33;;;;;;;;;;;;;;;17.85;91.48;100266.05;125287;1096;64771;-86
2021/07/26 01:14:09;;;;;;;8.60;5.80;;;;;;;17.83;91.54;100269.99;125798;1095;64233;-84
2021/07/26 01:17:01;;;;;;;8.17;5.77;;;;;;;17.82;91.03;100273.70;126953;1095;64201;-82
2021/07/26 01:19:32;;;;;;;13.10;6.13;;;;;;;17.80;91.85;100275.80;127868;1096;62763;-82
2021/07/26 01:22:05;;;;;;;10.37;7.00;;;;;;;17.79;92.08;100275.00;126705;1096;64193;-83
2021/07/26 01:24:35;;;;;;;8.37;6.23;;;;;;;17.78;92.07;100288.63;125323;1096;64169;-84
2021/07/26 01:27:12;;;;;;;10.15;6.30;;;;;;;17.77;92.26;100295.88;125509;1095;64279;-83
2021/07/26 01:29:41;;;;;;;8.97;5.43;;;;;;;17.76;91.90;100302.27;125643;1095;64339;-83
2021/07/26 01:32:14;;;;;;;8.83;5.20;;;;;;;17.74;92.07;100304.37;125172;1097;64369;-82
2021/07/26 01:35:04;;;;;;;8.97;5.97;;;;;;;17.71;91.60;100299.48;125218;1096;64205;-82
2021/07/26 01:37:34;;;;;;;10.00;5.57;;;;;;;17.66;91.50;100293.98;125120;1095;64358;-84
2021/07/26 01:40:02;;;;;;;9.17;6.30;;;;;;;17.62;91.43;100282.91;125280;1096;64237;-82
2021/07/26 01:42:41;;;;;;;9.57;6.77;;;;;;;17.61;91.68;100280.45;125261;1096;64229;-82
2021/07/26 01:45:31;;;;;;;10.57;5.93;;;;;;;17.59;91.84;100280.67;125050;1096;64457;-83
2021/07/26 01:48:31;;;;;;;9.30;6.33;;;;;;;17.59;92.26;100275.31;125090;1096;64213;-83
2021/07/26 01:51:14;;;;;;;9.70;6.30;;;;;;;17.61;92.03;100280.45;125281;1095;64387;-82
2021/07/26 01:53:56;;;;;;;11.17;6.60;;;;;;;17.62;91.98;100263.33;125267;1096;64208;-81
2021/07/26 01:56:53;;;;;;;11.63;6.40;;;;;;;17.64;91.80;100271.96;125137;1096;64254;-84
2021/07/26 01:59:38;;;;;;;9.87;6.10;;;;;;;17.63;91.72;100275.67;125171;1095;64387;-86
2021/07/26 02:02:31;;;;;;;;;;;;;;;;;;;;;
2021/07/26 02:05:03;;;;;;;9.30;6.37;;;;;;;17.64;91.91;100259.36;125269;1096;64321;-83
2021/07/26 02:07:33;;;;;;;10.20;5.53;;;;;;;17.64;91.94;100261.23;125141;1096;64303;-83
2021/07/26 02:10:13;;;;;;;9.97;5.37;;;;;;;17.63;92.13;100257.70;125407;1096;64239;-82
2021/07/26 02:13:04;;;;;;;9.70;6.67;;;;;;;17.60;91.87;100254.70;125121;1096;64400;-84
2021/07/26 02:15:43;;;;;;;9.33;6.37;;;;;;;17.59;91.89;100255.73;125130;1096;64195;-83
2021/07/26 02:18:31;;;;;;;12.03;6.73;;;;;;;17.59;91.89;100253.86;124922;1096;64307;-84
2021/07/26 02:21:12;;;;;;;;;;;;;;;;;;;;;
2021/07/26 02:24:07;;;;;;;9.63;5.70;;;;;;;17.64;92.04;100258.55;125198;1096;64332;-84
2021/07/26 02:26:58;;;;;;;10.10;6.20;;;;;;;17.65;91.77;100252.93;125181;1095;64174;-83
2021/07/26 02:29:48;;;;;;;10.97;6.33;;;;;;;17.71;92.03;100253.88;125250;1096;64366;-83
2021/07/26 02:32:29;;;;;;;;;;;;;;;;;;;;;
2021/07/26 02:35:36;;;;;;;;;;;;;;;;;;;;;
2021/07/26 02:38:08;;;;;;;8.55;6.20;;;;;;;17.84;91.43;100255.54;125203;1096;64255;-85
2021/07/26 02:40:38;;;;;;;9.80;6.50;;;;;;;17.85;91.47;100252.63;124970;1095;64311;-84
2021/07/26 02:43:08;;;;;;;10.00;6.20;;;;;;;17.89;91.45;100253.80;125214;1095;64279;-83
2021/07/26 02:45:38;;;;;;;10.20;6.53;;;;;;;17.90;91.08;100252.73;124997;1096;64333;-82
2021/07/26 02:48:14;;;;;;;8.43;6.40;;;;;;;17.93;91.07;100265.67;125010;1095;64214;-87
2021/07/26 02:50:52;;;;;;;10.97;6.97;;;;;;;17.93;90.90;100260.30;125043;1096;64304;-83
2021/07/26 02:53:22;;;;;;;11.07;6.90;;;;;;;17.95;90.89;100259.27;125067;1096;64194;-83
2021/07/26 02:55:52;;;;;;;10.00;6.57;;;;;;;17.97;90.75;100267.91;125078;1096;64314;-85
2021/07/26 02:58:22;;;;;;;11.70;6.57;;;;;;;17.97;90.71;100263.34;125086;1096;64281;-82
2021/07/26 03:00:55;;;;;;;9.70;6.23;;;;;;;17.96;90.70;100267.09;125236;1096;64227;-83
2021/07/26 03:03:40;;;;;;;9.23;5.83;;;;;;;17.97;90.61;100260.66;125109;1096;64361;-82
2021/07/26 03:06:17;;;;;;;;;;;;;;;17.96;90.85;100261.73;125189;1096;64261;-82
2021/07/26 03:08:53;;;;;;;8.27;6.43;;;;;;;17.95;91.06;100261.95;125178;1096;64293;-83
2021/07/26 03:11:41;;;;;;;9.17;5.63;;;;;;;17.92;91.05;100271.30;125275;1096;64301;-82
2021/07/26 03:14:08;;;;;;;9.87;5.40;;;;;;;17.90;90.69;100271.52;125215;1096;64204;-81
2021/07/26 03:16:49;;;;;;;9.27;6.80;;;;;;;17.90;90.62;100276.08;125164;1095;64299;-80
2021/07/26 03:19:19;;;;;;;10.30;6.77;;;;;;;17.90;90.84;100278.77;126709;1095;64146;-82
2021/07/26 03:22:38;;;;;;;;;;;;;;;;;;;;;
2021/07/26 03:25:10;;;;;;;10.10;6.40;;;;;;;17.90;90.58;100290.30;125108;1096;64249;-82
2021/07/26 03:27:50;;;;;;;;;;;;;;;;;;;;;
2021/07/26 03:30:30;;;;;;;9.07;5.80;;;;;;;17.92;90.00;100287.39;125026;1095;64304;-82
2021/07/26 03:32:58;;;;;;;6.90;5.37;;;;;;;17.91;90.11;100283.91;125029;1095;64358;-82
2021/07/26 03:35:30;;;;;;;9.07;5.50;;;;;;;17.92;89.85;100280.16;124945;1094;65041;-81
2021/07/26 03:38:11;;;;;;;;;;;;;;;;;;;;;
2021/07/26 03:41:01;;;;;;;10.83;5.67;;;;;;;17.96;89.56;100285.04;124921;1096;64204;-81
2021/07/26 03:43:39;;;;;;;8.83;5.20;;;;;;;17.96;89.30;100290.41;124970;1096;64374;-81
2021/07/26 03:46:12;;;;;;;7.50;4.90;;;;;;;17.98;89.10;100296.36;124932;1095;64431;-86
2021/07/26 03:48:47;;;;;;;8.60;4.93;;;;;;;17.99;89.08;100295.33;125013;1096;64272;-84
2021/07/26 03:51:21;;;;;;;9.40;4.97;;;;;;;18.03;88.80;100299.17;124999;1096;64629;-83
2021/07/26 03:54:15;;;;;;;6.78;5.08;;;;;;;18.07;88.73;100303.84;125044;1096;64355;-83
2021/07/26 03:57:02;;;;;;;7.07;4.00;;;;;;;18.11;88.25;100304.20;125117;1096;64207;-84
2021/07/26 03:59:47;;;;;;;7.67;5.17;;;;;;;18.14;88.27;100315.27;125076;1096;64342;-84
2021/07/26 04:02:35;;;;;;;;;;;;;;;18.18;88.15;100315.62;125075;1095;64258;-83
2021/07/26 04:05:16;;;;;;;;;;;;;;;;;;;;;
2021/07/26 04:08:34;;;;;;;6.83;5.63;;;;;;;18.26;87.58;100311.77;124952;1095;64297;-83
2021/07/26 04:11:34;;;;;;;6.47;4.17;;;;;;;18.29;87.09;100311.28;124934;1096;64311;-81
2021/07/26 04:14:20;;;;;;;;;;;;;;;;;;;;;
2021/07/26 04:16:51;;;;;;;13.73;4.70;;;;;;;18.38;86.51;100325.17;125067;1095;64297;-81
2021/07/26 04:19:40;;;;;;;;;;;;;;;;;;;;;
2021/07/26 04:22:49;;;;;;;11.17;4.20;;;;;;;18.43;86.72;100334.16;125016;1096;64291;-83
2021/07/26 04:25:58;;;;;;;6.20;4.63;;;;;;;18.49;86.23;100340.47;125096;1096;64295;-84
2021/07/26 04:28:27;;;;;;;5.50;3.87;;;;;;;18.52;85.86;100335.42;125097;1095;64295;-84
2021/07/26 04:31:09;;;;;;;;;;;;;;;;;;;;;
2021/07/26 04:34:10;;;;;;;7.47;4.23;;;;;;;18.56;85.33;100343.84;125077;1096;64333;-86
2021/07/26 04:37:01;;;;;;;6.40;4.50;;;;;;;18.59;85.22;100353.28;125053;1096;64301;-83
2021/07/26 04:39:34;;;;;;;4.90;3.77;;;;;;;18.60;84.93;100344.19;124983;1095;64281;-83
2021/07/26 04:42:14;;;;;;;6.37;4.20;;;;;;;18.59;84.92;100340.66;125107;1095;64371;-83
2021/07/26 04:44:41;;;;;;;7.83;3.90;;;;;;;18.62;84.76;100337.52;125267;1095;64172;-83
2021/07/26 04:47:59;;;;;;;;;;;;;;;;;;;;;
2021/07/26 04:50:39;;;;;;;8.40;3.70;;;;;;;18.70;84.23;100352.44;124994;1096;64279;-84
2021/07/26 04:53:46;;;;;;;7.37;4.20;;;;;;;18.72;84.48;100345.80;125249;1096;64323;-84
2021/07/26 04:56:55;;;;;;;5.83;3.50;;;;;;;18.75;84.49;100352.56;125182;1095;64326;-83
2021/07/26 04:59:26;;;;;;;6.80;4.17;;;;;;;18.75;84.72;100345.31;125174;1096;64304;-84
2021/07/26 05:02:20;;;;;;;6.40;3.80;;;;;;;18.78;85.14;100340.52;125348;1096;64278;-84
2021/07/26 05:05:01;;;;;;;;;;;;;;;;;;;;;
2021/07/26 05:07:43;;;;;;;6.70;3.83;;;;;;;18.78;85.50;100348.58;125255;1096;64374;-79
2021/07/26 05:10:30;;;;;;;10.50;3.83;;;;;;;18.82;85.66;100347.89;124400;1096;64364;-79
2021/07/26 05:13:39;;;;;;;6.30;3.55;;;;;;;18.85;85.63;100351.97;125044;1095;64191;-82
2021/07/26 05:16:08;;;;;;;4.77;3.23;;;;;;;18.91;85.84;100345.64;125426;1095;64294;-81
2021/07/26 05:18:35;;;;;;;7.00;3.40;;;;;;;18.96;85.62;100345.76;124999;1096;64284;-78
2021/07/26 05:21:06;;;;;;;5.23;3.90;;;;;;;19.04;85.66;100357.98;124939;1096;64230;-77
2021/07/26 05:23:36;;;;;;;5.87;3.77;;;;;;;19.09;85.50;100358.91;124768;1096;64279;-77
2021/07/26 05:26:09;;;;;;;6.83;3.30;;;;;;;19.13;84.33;100353.88;124762;1096;64318;-77
2021/07/26 05:28:40;;;;;;;7.07;3.17;;;;;;;19.15;84.48;100354.45;126233;1096;64227;-78
2021/07/26 05:31:15;;;;;;;7.20;3.33;;;;;;;19.21;83.76;100360.73;124762;1096;64283;-77
2021/07/26 05:33:49;;;;;;;9.10;3.50;;;;;;;19.23;83.29;100348.70;124724;1096;64243;-78
2021/07/26 05:36:23;;;;;;;9.53;3.50;;;;;;;19.28;82.48;100354.16;124756;1096;64252;-78
2021/07/26 05:39:12;;;;;;;;;;;;;;;19.33;83.12;100348.86;124717;1095;64376;-79
2021/07/26 05:42:03;;;;;;;9.07;4.17;;;;;;;19.39;83.40;100347.09;124751;1096;65244;-77
2021/07/26 05:45:01;;;;;;;;;;;;;;;;;;;;;
2021/07/26 05:47:52;;;;;;;5.77;3.40;;;;;;;19.46;82.52;100347.74;124759;1097;64298;-78
2021/07/26 05:50:20;;;;;;;5.87;3.87;;;;;;;19.50;82.54;100343.52;124662;1096;64288;-78
2021/07/26 05:53:38;;;;;;;;;;;;;;;;;;;;;
2021/07/26 05:56:37;;;;;;;;;;;;;;;;;;;;;
2021/07/26 05:59:04;;;;;;;5.13;3.40;;;;;;;19.63;82.31;100333.50;124730;1096;64197;-76
2021/07/26 06:02:13;;;;;;;7.60;3.83;;;;;;;19.65;82.44;100339.45;124799;1096;64201;-78
2021/07/26 06:05:02;;;;;;;8.80;3.57;;;;;;;19.71;82.06;100333.13;124748;1097;64450;-79
2021/07/26 06:07:41;;;;;;;7.17;4.13;;;;;;;19.77;82.03;100342.92;124680;1096;65378;-81
2021/07/26 06:10:40;;;;;;;4.53;2.50;;;;;;;19.81;81.71;100344.06;124750;1096;64290;-78
2021/07/26 06:13:13;;;;;;;4.97;3.80;;;;;;;19.82;81.54;100344.88;124643;1096;64323;-78
2021/07/26 06:15:40;;;;;;;8.73;3.30;;;;;;;19.84;81.28;100346.26;124778;1097;64205;-75
2021/07/26 06:18:10;;;;;;;7.50;4.13;;;;;;;19.84;81.87;100348.14;124714;1096;64444;-77
2021/07/26 06:21:10;;;;;;;7.77;4.83;;;;;;;19.86;81.81;100346.02;124723;1096;64255;-76
2021/07/26 06:23:49;;;;;;;5.77;3.70;;;;;;;19.85;82.17;100339.83;124791;1096;64384;-78
2021/07/26 06:26:16;;;;;;;10.90;6.23;;;;;;;19.86;82.08;100346.83;124302;1096;64345;-78
2021/07/26 06:29:04;;;;;;;11.00;8.15;;;;;;;19.88;82.20;100342.02;124762;1096;64246;-79
2021/07/26 06:31:37;;;;;;;7.60;4.77;;;;;;;19.89;82.53;100353.59;124782;1095;64327;-77
2021/07/26 06:34:07;;;;;;;6.30;4.03;;;;;;;19.89;82.68;100351.73;124753;1096;64323;-78
2021/07/26 06:36:37;;;;;;;7.57;5.73;;;;;;;19.89;82.40;100343.66;124724;1096;64275;-78
2021/07/26 06:39:30;;;;;;;6.93;4.10;;;;;;;19.93;81.86;100355.58;124826;1096;64304;-80
2021/07/26 06:42:18;;;;;;;7.93;4.37;;;;;;;19.99;81.39;100347.56;124722;1095;64298;-79
2021/07/26 06:44:46;;;;;;;5.43;3.70;;;;;;;20.03;81.58;100351.40;124829;1096;64361;-78
2021/07/26 06:47:33;;;;;;;7.97;3.93;;;;;;;20.10;82.21;100349.34;124817;1095;64282;-77
2021/07/26 06:50:22;;;;;;;5.27;3.97;;;;;;;20.20;81.81;100359.46;124780;1096;64247;-77
2021/07/26 06:52:55;;;;;;;6.23;3.97;;;;;;;20.41;81.36;100353.30;126114;1096;64230;-77
2021/07/26 06:55:25;;;;;;;7.10;3.70;;;;;;;20.61;80.86;100357.36;124786;1096;64282;-79
2021/07/26 06:58:14;;;;;;;6.60;3.10;;;;;;;20.82;79.81;100363.82;124773;1096;64342;-79
2021/07/26 07:00:42;;;;;;;4.23;3.23;;;;;;;21.04;79.55;100359.24;124505;1095;64339;-79
2021/07/26 07:03:15;;;;;;;6.47;3.80;;;;;;;21.24;77.69;100355.13;124662;1095;64307;-78
2021/07/26 07:05:52;;;;;;;;;;;;;;;;;;;;;
2021/07/26 07:08:25;;;;;;;4.80;3.27;;;;;;;21.65;76.35;100358.23;124761;1095;65331;-76
2021/07/26 07:11:24;;;;;;;23.37;10.87;;;;;;;21.81;76.06;100360.00;124635;1096;64495;-78
2021/07/26 07:14:09;;;;;;;5.43;3.13;;;;;;;21.99;74.37;100369.58;124713;1096;64298;-78
2021/07/26 07:16:46;;;;;;;7.57;4.00;;;;;;;22.16;74.73;100366.73;124709;1096;64297;-75
2021/07/26 07:19:13;;;;;;;6.47;4.33;;;;;;;22.34;73.77;100362.84;124559;1096;64357;-78
2021/07/26 07:21:46;;;;;;;4.87;3.67;;;;;;;22.44;72.02;100356.66;124610;1095;64294;-78
2021/07/26 07:24:23;;;;;;;11.57;6.50;;;;;;;22.57;72.62;100356.21;124785;1096;64402;-79
2021/07/26 07:26:54;;;;;;;5.10;2.70;;;;;;;22.67;70.20;100355.42;124817;1096;64298;-79
2021/07/26 07:29:21;;;;;;;4.80;2.53;;;;;;;22.78;70.78;100351.68;125014;1094;64235;-79
2021/07/26 07:31:49;;;;;;;5.23;3.23;;;;;;;22.92;70.28;100357.42;124794;1095;64358;-77
2021/07/26 07:34:17;;;;;;;5.00;2.97;;;;;;;23.05;69.95;100351.53;124812;1095;64253;-79
2021/07/26 07:36:58;;;;;;;6.17;3.03;;;;;;;23.22;68.15;100355.91;124723;1096;64326;-78
2021/07/26 07:39:57;;;;;;;;;;;;;;;;;;;;;
2021/07/26 07:42:24;;;;;;;3.90;2.13;;;;;;;23.44;64.78;100353.80;124872;1096;64757;-78
2021/07/26 07:44:55;;;;;;;4.57;2.53;;;;;;;23.53;65.24;100346.76;124301;1096;64352;-77
2021/07/26 07:47:22;;;;;;;3.47;2.20;;;;;;;23.63;65.35;100345.93;124714;1096;64301;-77
2021/07/26 07:49:50;;;;;;;4.33;2.70;;;;;;;23.75;62.91;100342.97;124714;1096;64176;-78
2021/07/26 07:52:26;;;;;;;4.80;2.40;;;;;;;23.83;61.47;100345.16;124330;1097;64284;-77
2021/07/26 07:54:54;;;;;;;4.47;2.17;;;;;;;23.97;61.29;100350.83;125067;1097;64307;-78
2021/07/26 07:57:22;;;;;;;4.40;2.80;;;;;;;24.10;61.84;100352.16;124814;1096;64298;-77
2021/07/26 07:59:50;;;;;;;6.63;4.27;;;;;;;24.22;62.22;100347.27;124909;1096;64358;-78
2021/07/26 08:02:18;;;;;;;10.20;7.00;;;;;;;24.34;60.72;100341.56;124721;1096;64284;-77
2021/07/26 08:04:45;;;;;;;7.75;4.40;;;;;;;24.47;58.89;100343.68;124699;1096;64368;-77
2021/07/26 08:07:28;;;;;;;5.05;3.25;;;;;;;24.60;58.98;100347.73;124717;1096;64233;-81
2021/07/26 08:09:55;;;;;;;3.20;2.20;;;;;;;24.73;58.28;100352.55;124271;1095;65414;-78
2021/07/26 08:12:22;;;;;;;4.93;1.97;;;;;;;24.83;58.63;100357.14;124340;1096;64249;-78
2021/07/26 08:14:56;;;;;;;7.27;4.10;;;;;;;24.94;57.75;100349.76;124633;1096;64419;-78
2021/07/26 08:17:35;;;;;;;;;;;;;;;;;;;;;
2021/07/26 08:20:05;;;;;;;6.37;3.80;;;;;;;25.03;56.04;100351.62;124320;1096;64362;-77
2021/07/26 08:23:00;;;;;;;4.37;2.50;;;;;;;25.04;54.46;100347.00;124783;1096;64235;-75
2021/07/26 08:25:29;;;;;;;6.00;2.50;;;;;;;25.07;55.51;100349.14;124495;1095;64365;-78
2021/07/26 08:27:58;;;;;;;3.27;1.83;;;;;;;25.15;54.27;100358.60;124757;1096;64339;-76
2021/07/26 08:30:27;;;;;;;3.00;1.90;;;;;;;25.18;54.06;100358.86;124662;1095;64338;-78
2021/07/26 08:33:00;;;;;;;2.37;1.70;;;;;;;25.22;54.53;100353.69;124883;1096;64330;-78
2021/07/26 08:35:30;;;;;;;3.10;2.20;;;;;;;25.25;54.61;100352.31;124786;1096;64303;-80
2021/07/26 08:37:57;;;;;;;3.53;2.00;;;;;;;25.33;55.14;100362.58;124755;1095;64332;-78
2021/07/26 08:40:41;;;;;;;2.60;1.73;;;;;;;25.41;54.94;100356.56;124312;1095;64429;-77
2021/07/26 08:43:08;;;;;;;2.80;1.77;;;;;;;25.52;54.98;100358.09;124679;1095;64902;-79
2021/07/26 08:45:36;;;;;;;2.80;1.73;;;;;;;25.54;52.19;100355.91;124627;1095;64304;-77
2021/07/26 08:48:08;;;;;;;3.20;1.70;;;;;;;25.54;52.30;100355.11;124637;1096;64282;-78
2021/07/26 08:50:38;;;;;;;2.63;1.87;;;;;;;25.53;50.85;100359.73;124846;1096;64240;-78
2021/07/26 08:53:19;;;;;;;2.53;1.93;;;;;;;25.56;51.73;100364.59;124765;1096;64431;-77
2021/07/26 08:55:56;;;;;;;3.07;2.30;;;;;;;25.66;50.17;100357.47;124555;1095;64307;-78
2021/07/26 08:58:25;;;;;;;3.83;1.30;;;;;;;25.73;50.80;100355.23;124785;1096;64261;-79
2021/07/26 09:00:55;;;;;;;3.33;1.90;;;;;;;25.81;51.12;100352.70;124730;1095;64320;-80
2021/07/26 09:03:32;;;;;;;3.23;1.57;;;;;;;25.87;50.30;100358.11;124648;1096;64289;-78
2021/07/26 09:05:59;;;;;;;2.60;1.50;;;;;;;25.88;49.89;100355.09;124406;1096;64352;-77
2021/07/26 09:08:36;;;;;;;2.80;1.90;;;;;;;25.93;49.45;100351.57;124698;1095;64409;-77
2021/07/26 09:11:15;;;;;;;2.60;1.77;;;;;;;25.96;50.39;100362.66;124548;1095;64415;-77
2021/07/26 09:14:00;;;;;;;4.23;1.80;;;;;;;25.95;47.86;100365.69;124850;1095;64230;-85
2021/07/26 09:16:30;;;;;;;3.40;1.60;;;;;;;25.98;47.73;100363.19;124849;1095;64258;-78
2021/07/26 09:19:03;;;;;;;4.63;1.53;;;;;;;26.09;47.76;100358.46;124387;1095;64371;-77
2021/07/26 09:21:51;;;;;;;85.77;63.97;;;;;;;26.28;48.39;100366.70;124489;1096;64295;-77
2021/07/26 09:24:29;;;;;;;3.47;2.07;;;;;;;26.43;48.10;100366.53;124732;1096;64286;-76
2021/07/26 09:27:20;;;;;;;2.55;1.50;;;;;;;26.55;46.83;100373.49;124645;1095;64236;-77
2021/07/26 09:29:47;;;;;;;3.30;1.83;;;;;;;26.58;47.54;100368.30;124323;1095;64343;-76
2021/07/26 09:32:15;;;;;;;2.50;1.70;;;;;;;26.66;47.79;100364.13;124535;1096;64390;-77
2021/07/26 09:34:42;;;;;;;6.63;2.00;;;;;;;26.74;48.45;100376.30;124519;1096;64313;-78
2021/07/26 09:37:20;;;;;;;2.97;1.77;;;;;;;26.84;48.09;100368.81;124670;1096;64285;-76
2021/07/26 09:39:47;;;;;;;3.45;1.70;;;;;;;26.94;48.21;100364.33;124492;1096;64490;-77
2021/07/26 09:42:32;;;;;;;31.13;19.67;;;;;;;27.07;48.09;100363.59;124566;1095;64272;-76
2021/07/26 09:45:26;;;;;;;2.73;1.97;;;;;;;27.10;47.62;100359.50;124656;1096;64282;-76
2021/07/26 09:48:14;;;;;;;2.57;1.90;;;;;;;27.00;46.75;100363.16;124684;1096;65509;-76
2021/07/26 09:50:42;;;;;;;3.40;1.80;;;;;;;27.03;47.53;100365.28;124402;1094;64368;-75
2021/07/26 09:53:11;;;;;;;3.37;2.37;;;;;;;26.87;47.49;100356.52;124355;1096;64239;-75
2021/07/26 09:55:41;;;;;;;2.97;1.67;;;;;;;26.85;48.06;100362.25;124686;1096;64281;-73
2021/07/26 09:58:11;;;;;;;3.90;2.17;;;;;;;26.75;47.44;100370.54;124636;1096;64378;-75
2021/07/26 10:00:40;;;;;;;2.80;1.90;;;;;;;26.62;47.54;100360.38;124671;1095;64313;-76
2021/07/26 10:03:10;;;;;;;4.50;2.23;;;;;;;26.53;47.81;100365.61;124635;1096;64298;-77
2021/07/26 10:05:43;;;;;;;2.63;2.00;;;;;;;26.75;48.31;100354.21;124657;1096;64335;-76
2021/07/26 10:08:18;;;;;;;3.33;1.70;;;;;;;27.00;47.43;100360.44;124625;1096;64320;-76
2021/07/26 10:10:46;;;;;;;3.40;2.00;;;;;;;27.32;47.51;100359.73;124628;1096;64426;-77
2021/07/26 10:13:13;;;;;;;2.87;1.70;;;;;;;27.47;43.88;100360.61;124535;1096;64301;-76
2021/07/26 10:15:40;;;;;;;2.83;1.73;;;;;;;27.36;44.28;100362.68;124559;1096;64421;-76
2021/07/26 10:18:07;;;;;;;2.80;2.00;;;;;;;27.42;44.25;100359.58;124619;1096;64301;-78
2021/07/26 10:20:39;;;;;;;3.70;2.20;;;;;;;27.48;44.42;100363.05;124623;1096;65350;-79
2021/07/26 10:23:35;;;;;;;3.25;2.15;;;;;;;27.37;45.30;100356.11;124624;1096;64281;-76
2021/07/26 10:26:10;;;;;;;5.30;2.15;;;;;;;27.31;46.25;100369.02;124496;1096;64458;-78
2021/07/26 10:28:43;;;;;;;2.73;1.87;;;;;;;27.33;45.49;100363.25;124831;1096;64315;-78
2021/07/26 10:31:31;;;;;;;3.10;1.90;;;;;;;27.33;45.85;100360.53;124722;1095;64400;-77
2021/07/26 10:34:12;;;;;;;4.20;2.00;;;;;;;27.28;45.34;100357.89;124676;1096;64233;-78
2021/07/26 10:36:43;;;;;;;2.77;1.97;;;;;;;27.22;45.58;100357.15;124667;1095;64351;-77
2021/07/26 10:39:12;;;;;;;2.47;1.73;;;;;;;27.17;45.83;100355.28;124686;1095;64298;-80
2021/07/26 10:41:48;;;;;;;3.67;2.30;;;;;;;27.14;45.65;100358.61;124630;1096;64307;-78
2021/07/26 10:44:15;;;;;;;2.90;1.85;;;;;;;27.08;45.36;100358.98;124628;1095;64301;-81
2021/07/26 10:47:04;;;;;;;4.45;2.00;;;;;;;27.08;45.85;100343.45;124589;1096;64262;-80
2021/07/26 10:49:44;;;;;;;2.83;1.83;;;;;;;27.36;45.23;100338.16;124692;1096;64326;-79
2021/07/26 10:52:24;;;;;;;2.80;1.70;;;;;;;27.73;42.93;100341.92;124642;1095;64426;-78
2021/07/26 10:54:54;;;;;;;2.83;1.40;;;;;;;28.10;42.84;100335.58;124747;1095;64300;-80
2021/07/26 10:57:46;;;;;;;2.00;1.50;;;;;;;28.48;41.14;100343.58;124934;1096;64142;-81
2021/07/26 11:00:15;;;;;;;2.47;1.50;;;;;;;28.74;40.35;100335.69;124899;1095;64279;-78
2021/07/26 11:02:48;;;;;;;2.33;1.30;;;;;;;29.00;41.63;100329.67;124951;1095;65026;-79
2021/07/26 11:05:27;;;;;;;2.90;1.20;;;;;;;29.24;39.59;100332.97;124971;1095;63022;-78
2021/07/26 11:08:14;;;;;;;2.70;1.77;;;;;;;29.33;38.92;100334.94;125053;1096;64281;-79
2021/07/26 11:10:49;;;;;;;2.37;1.50;;;;;;;29.54;38.95;100325.16;125070;1096;64278;-79
2021/07/26 11:13:17;;;;;;;2.80;1.40;;;;;;;29.44;38.88;100333.59;124945;1096;64258;-79
2021/07/26 11:15:45;;;;;;;1.83;1.20;;;;;;;29.09;38.38;100327.81;124680;1096;64416;-79
2021/07/26 11:18:30;;;;;;;2.67;1.53;;;;;;;29.06;39.11;100336.63;125058;1095;64420;-80
2021/07/26 11:21:23;;;;;;;3.03;1.67;;;;;;;28.95;39.72;100332.52;124962;1096;64304;-81
2021/07/26 11:23:55;;;;;;;2.50;1.90;;;;;;;28.71;40.04;100339.05;124865;1096;64307;-80
2021/07/26 11:26:31;;;;;;;2.20;1.30;;;;;;;28.60;40.37;100326.70;125137;1095;64230;-79
2021/07/26 11:29:01;;;;;;;2.50;1.80;;;;;;;28.54;40.34;100317.00;124786;1096;64188;-81
2021/07/26 11:31:33;;;;;;;2.53;1.70;;;;;;;28.70;40.40;100315.58;124707;1095;64256;-80
2021/07/26 11:34:10;;;;;;;2.20;1.27;;;;;;;28.84;38.79;100327.28;124790;1096;64284;-79
2021/07/26 11:37:08;;;;;;;2.00;1.13;;;;;;;28.81;38.54;100322.42;125090;1095;64289;-81
2021/07/26 11:40:01;;;;;;;3.43;1.20;;;;;;;28.79;38.13;100318.39;124925;1096;64202;-81
2021/07/26 11:42:30;;;;;;;3.07;1.57;;;;;;;29.05;37.84;100313.16;125197;1096;64170;-80
2021/07/26 11:45:02;;;;;;;2.37;1.40;;;;;;;29.27;37.51;100323.34;125381;1095;64236;-81
2021/07/26 11:47:49;;;;;;;4.40;1.40;;;;;;;29.35;37.25;100314.41;125498;1095;64286;-80
2021/07/26 11:50:19;;;;;;;1.90;1.20;;;;;;;29.53;38.99;100309.86;124896;1096;64287;-81
2021/07/26 11:52:53;;;;;;;2.37;1.50;;;;;;;29.68;36.95;100309.46;124814;1096;64265;-79
2021/07/26 11:55:28;;;;;;;2.37;1.13;;;;;;;29.88;37.70;100304.63;124865;1095;64470;-80
2021/07/26 11:58:06;;;;;;;2.20;1.30;;;;;;;30.10;37.34;100305.69;125149;1095;64214;-79
2021/07/26 12:00:44;;;;;;;3.23;1.20;;;;;;;30.42;35.80;100304.53;125019;1095;64298;-80
2021/07/26 12:03:20;;;;;;;2.20;1.50;;;;;;;30.70;35.29;100305.06;124832;1095;64223;-82
2021/07/26 12:05:48;;;;;;;3.27;1.50;;;;;;;30.89;34.77;100315.75;124849;1095;64281;-80
2021/07/26 12:08:19;;;;;;;3.97;1.40;;;;;;;31.16;34.57;100309.16;124860;1095;64300;-78
2021/07/26 12:10:47;;;;;;;3.33;1.53;;;;;;;31.41;32.87;100314.92;124481;1096;64368;-80
2021/07/26 12:13:17;;;;;;;3.17;1.33;;;;;;;31.35;33.83;100306.08;124933;1096;64355;-78
2021/07/26 12:16:08;;;;;;;2.47;1.53;;;;;;;31.11;33.67;100303.02;124801;1096;65470;-80
2021/07/26 12:18:36;;;;;;;1.90;1.10;;;;;;;30.97;33.00;100305.94;124694;1095;64799;-79
2021/07/26 12:21:05;;;;;;;1.80;1.17;;;;;;;31.04;33.93;100301.56;124705;1095;64451;-80
2021/07/26 12:23:36;;;;;;;2.13;1.37;;;;;;;31.25;33.98;100301.72;125075;1095;64418;-78
2021/07/26 12:26:13;;;;;;;3.77;1.50;;;;;;;31.35;34.82;100305.28;124785;1095;64281;-80
2021/07/26 12:28:41;;;;;;;3.63;1.83;;;;;;;31.24;33.55;100299.30;124795;1095;65379;-79
2021/07/26 12:31:29;;;;;;;2.90;1.37;;;;;;;31.23;34.91;100300.44;124741;1096;64278;-79
2021/07/26 12:34:25;;;;;;;3.30;1.60;;;;;;;31.31;34.48;100298.83;124855;1096;64330;-82
2021/07/26 12:36:57;;;;;;;3.47;1.50;;;;;;;31.50;33.99;100291.09;124814;1097;64290;-81
2021/07/26 12:39:39;;;;;;;2.47;1.20;;;;;;;31.19;34.12;100291.25;124758;1096;64377;-79
2021/07/26 12:42:20;;;;;;;3.60;1.50;;;;;;;30.58;33.56;100292.02;124513;1096;64205;-77
2021/07/26 12:44:48;;;;;;;2.20;1.57;;;;;;;30.08;35.04;100301.33;124842;1096;64330;-78